sensor_id;sensor_type;location;lat;lon;timestamp;temperature;humidity
42755;DHT22;28407;51.830;5.684;2023-02-08T00:00:38;2.20;76.50
42755;DHT22;28407;51.830;5.684;2023-02-08T00:02:39;2.20;76.60
42755;DHT22;28407;51.830;5.684;2023-02-08T00:04:39;2.20;76.60
42755;DHT22;28407;51.830;5.684;2023-02-08T00:06:40;2.20;76.60
42755;DHT22;28407;51.830;5.684;2023-02-08T00:08:41;2.20;76.60
42755;DHT22;28407;51.830;5.684;2023-02-08T00:10:42;2.20;76.60
42755;DHT22;28407;51.830;5.684;2023-02-08T00:12:43;2.10;76.60
42755;DHT22;28407;51.830;5.684;2023-02-08T00:14:44;2.10;76.70
42755;DHT22;28407;51.830;5.684;2023-02-08T00:16:44;2.10;76.60
42755;DHT22;28407;51.830;5.684;2023-02-08T00:18:45;2.10;76.60
42755;DHT22;28407;51.830;5.684;2023-02-08T00:20:46;2.10;76.60
42755;DHT22;28407;51.830;5.684;2023-02-08T00:22:47;2.10;76.70
42755;DHT22;28407;51.830;5.684;2023-02-08T00:24:49;2.10;76.70
42755;DHT22;28407;51.830;5.684;2023-02-08T00:26:50;2.10;76.70
42755;DHT22;28407;51.830;5.684;2023-02-08T00:28:51;2.10;76.60
42755;DHT22;28407;51.830;5.684;2023-02-08T00:30:51;2.10;76.60
42755;DHT22;28407;51.830;5.684;2023-02-08T00:32:52;2.10;76.60
42755;DHT22;28407;51.830;5.684;2023-02-08T00:34:53;2.10;76.60
42755;DHT22;28407;51.830;5.684;2023-02-08T00:36:53;2.10;76.60
42755;DHT22;28407;51.830;5.684;2023-02-08T00:38:54;2.00;76.60
42755;DHT22;28407;51.830;5.684;2023-02-08T00:40:55;2.00;76.60
42755;DHT22;28407;51.830;5.684;2023-02-08T00:42:56;2.00;76.60
42755;DHT22;28407;51.830;5.684;2023-02-08T00:44:56;2.00;76.70
42755;DHT22;28407;51.830;5.684;2023-02-08T00:46:57;2.00;76.70
42755;DHT22;28407;51.830;5.684;2023-02-08T00:48:58;2.00;76.70
42755;DHT22;28407;51.830;5.684;2023-02-08T00:51:03;2.00;76.70
42755;DHT22;28407;51.830;5.684;2023-02-08T00:53:04;2.00;76.80
42755;DHT22;28407;51.830;5.684;2023-02-08T00:55:05;2.00;76.70
42755;DHT22;28407;51.830;5.684;2023-02-08T00:57:06;2.00;76.70
42755;DHT22;28407;51.830;5.684;2023-02-08T00:59:06;1.90;76.70
42755;DHT22;28407;51.830;5.684;2023-02-08T01:01:08;1.90;76.70
42755;DHT22;28407;51.830;5.684;2023-02-08T01:03:08;1.90;76.70
42755;DHT22;28407;51.830;5.684;2023-02-08T01:05:09;1.90;76.70
42755;DHT22;28407;51.830;5.684;2023-02-08T01:07:10;1.90;76.70
42755;DHT22;28407;51.830;5.684;2023-02-08T01:09:11;1.90;76.80
42755;DHT22;28407;51.830;5.684;2023-02-08T01:11:14;1.90;76.80
42755;DHT22;28407;51.830;5.684;2023-02-08T01:13:15;1.80;76.80
42755;DHT22;28407;51.830;5.684;2023-02-08T01:15:16;1.80;77.40
42755;DHT22;28407;51.830;5.684;2023-02-08T01:17:17;1.80;76.80
42755;DHT22;28407;51.830;5.684;2023-02-08T01:19:18;1.80;76.80
42755;DHT22;28407;51.830;5.684;2023-02-08T01:21:21;1.80;76.80
42755;DHT22;28407;51.830;5.684;2023-02-08T01:23:22;1.80;76.80
42755;DHT22;28407;51.830;5.684;2023-02-08T01:25:22;1.80;76.80
42755;DHT22;28407;51.830;5.684;2023-02-08T01:27:23;1.80;76.90
42755;DHT22;28407;51.830;5.684;2023-02-08T01:29:23;1.80;76.80
42755;DHT22;28407;51.830;5.684;2023-02-08T01:31:27;1.80;76.90
42755;DHT22;28407;51.830;5.684;2023-02-08T01:33:28;1.80;76.90
42755;DHT22;28407;51.830;5.684;2023-02-08T01:35:29;1.80;76.90
42755;DHT22;28407;51.830;5.684;2023-02-08T01:37:31;1.80;76.90
42755;DHT22;28407;51.830;5.684;2023-02-08T01:39:31;1.80;76.90
42755;DHT22;28407;51.830;5.684;2023-02-08T01:41:38;1.70;76.80
42755;DHT22;28407;51.830;5.684;2023-02-08T01:46:00;1.70;76.90
42755;DHT22;28407;51.830;5.684;2023-02-08T01:48:12;1.70;76.80
42755;DHT22;28407;51.830;5.684;2023-02-08T01:50:15;1.70;76.80
42755;DHT22;28407;51.830;5.684;2023-02-08T01:52:19;1.70;76.90
42755;DHT22;28407;51.830;5.684;2023-02-08T01:54:23;1.60;76.80
42755;DHT22;28407;51.830;5.684;2023-02-08T01:56:44;1.60;76.80
42755;DHT22;28407;51.830;5.684;2023-02-08T01:58:49;1.60;76.90
42755;DHT22;28407;51.830;5.684;2023-02-08T02:00:51;1.60;76.90
42755;DHT22;28407;51.830;5.684;2023-02-08T02:02:53;1.60;76.90
42755;DHT22;28407;51.830;5.684;2023-02-08T02:04:55;1.60;76.90
42755;DHT22;28407;51.830;5.684;2023-02-08T02:06:57;1.60;76.90
42755;DHT22;28407;51.830;5.684;2023-02-08T02:09:20;1.60;76.90
42755;DHT22;28407;51.830;5.684;2023-02-08T02:11:23;1.60;76.90
42755;DHT22;28407;51.830;5.684;2023-02-08T02:13:27;1.60;77.00
42755;DHT22;28407;51.830;5.684;2023-02-08T02:15:28;1.60;77.00
42755;DHT22;28407;51.830;5.684;2023-02-08T02:17:30;1.60;77.00
42755;DHT22;28407;51.830;5.684;2023-02-08T02:21:56;1.60;77.00
42755;DHT22;28407;51.830;5.684;2023-02-08T02:24:41;1.60;77.00
42755;DHT22;28407;51.830;5.684;2023-02-08T02:27:03;1.60;77.00
42755;DHT22;28407;51.830;5.684;2023-02-08T02:33:45;1.50;76.90
42755;DHT22;28407;51.830;5.684;2023-02-08T02:36:15;1.50;76.90
42755;DHT22;28407;51.830;5.684;2023-02-08T02:38:37;1.50;76.90
42755;DHT22;28407;51.830;5.684;2023-02-08T02:43:46;1.50;76.90
42755;DHT22;28407;51.830;5.684;2023-02-08T02:45:58;1.50;76.90
42755;DHT22;28407;51.830;5.684;2023-02-08T02:48:06;1.40;76.90
42755;DHT22;28407;51.830;5.684;2023-02-08T02:52:18;1.40;77.60
42755;DHT22;28407;51.830;5.684;2023-02-08T02:54:56;1.40;77.00
42755;DHT22;28407;51.830;5.684;2023-02-08T02:57:07;1.40;77.00
42755;DHT22;28407;51.830;5.684;2023-02-08T02:59:11;1.40;77.00
42755;DHT22;28407;51.830;5.684;2023-02-08T03:01:12;1.40;77.10
42755;DHT22;28407;51.830;5.684;2023-02-08T03:03:19;1.30;77.00
42755;DHT22;28407;51.830;5.684;2023-02-08T03:05:21;1.40;77.10
42755;DHT22;28407;51.830;5.684;2023-02-08T03:07:36;1.30;77.00
42755;DHT22;28407;51.830;5.684;2023-02-08T03:09:45;1.30;77.00
42755;DHT22;28407;51.830;5.684;2023-02-08T03:11:56;1.30;77.00
42755;DHT22;28407;51.830;5.684;2023-02-08T03:23:12;1.30;77.00
42755;DHT22;28407;51.830;5.684;2023-02-08T03:25:22;1.20;77.00
42755;DHT22;28407;51.830;5.684;2023-02-08T03:27:27;1.20;77.00
42755;DHT22;28407;51.830;5.684;2023-02-08T03:29:44;1.20;77.00
42755;DHT22;28407;51.830;5.684;2023-02-08T03:31:59;1.20;77.10
42755;DHT22;28407;51.830;5.684;2023-02-08T03:34:05;1.20;77.10
42755;DHT22;28407;51.830;5.684;2023-02-08T03:36:15;1.20;77.10
42755;DHT22;28407;51.830;5.684;2023-02-08T03:38:34;1.20;77.10
42755;DHT22;28407;51.830;5.684;2023-02-08T03:40:40;1.20;77.10
42755;DHT22;28407;51.830;5.684;2023-02-08T03:42:42;1.10;77.10
42755;DHT22;28407;51.830;5.684;2023-02-08T03:44:50;1.20;77.20
42755;DHT22;28407;51.830;5.684;2023-02-08T03:46:55;1.10;77.10
42755;DHT22;28407;51.830;5.684;2023-02-08T03:49:04;1.10;77.10
42755;DHT22;28407;51.830;5.684;2023-02-08T03:51:07;1.10;77.20
42755;DHT22;28407;51.830;5.684;2023-02-08T03:53:09;1.20;77.20
42755;DHT22;28407;51.830;5.684;2023-02-08T03:55:20;1.10;77.10
42755;DHT22;28407;51.830;5.684;2023-02-08T03:57:37;1.10;77.10
42755;DHT22;28407;51.830;5.684;2023-02-08T03:59:42;1.10;77.00
42755;DHT22;28407;51.830;5.684;2023-02-08T04:01:46;1.10;77.00
42755;DHT22;28407;51.830;5.684;2023-02-08T04:03:49;1.10;77.10
42755;DHT22;28407;51.830;5.684;2023-02-08T04:05:53;1.10;77.10
42755;DHT22;28407;51.830;5.684;2023-02-08T04:07:54;1.10;77.10
42755;DHT22;28407;51.830;5.684;2023-02-08T04:09:56;1.10;77.10
42755;DHT22;28407;51.830;5.684;2023-02-08T04:11:56;1.00;77.00
42755;DHT22;28407;51.830;5.684;2023-02-08T04:13:58;1.00;77.10
42755;DHT22;28407;51.830;5.684;2023-02-08T04:15:58;1.00;77.10
42755;DHT22;28407;51.830;5.684;2023-02-08T04:17:59;1.10;77.20
42755;DHT22;28407;51.830;5.684;2023-02-08T04:19:59;1.00;77.20
42755;DHT22;28407;51.830;5.684;2023-02-08T04:22:00;1.00;77.10
42755;DHT22;28407;51.830;5.684;2023-02-08T04:24:01;1.00;77.10
42755;DHT22;28407;51.830;5.684;2023-02-08T04:26:02;1.00;77.20
42755;DHT22;28407;51.830;5.684;2023-02-08T04:28:03;1.00;77.20
42755;DHT22;28407;51.830;5.684;2023-02-08T04:30:04;1.00;77.10
42755;DHT22;28407;51.830;5.684;2023-02-08T04:32:05;1.00;77.10
42755;DHT22;28407;51.830;5.684;2023-02-08T04:34:10;1.00;77.10
42755;DHT22;28407;51.830;5.684;2023-02-08T04:36:11;1.00;77.10
42755;DHT22;28407;51.830;5.684;2023-02-08T04:38:11;1.00;77.70
42755;DHT22;28407;51.830;5.684;2023-02-08T04:40:12;1.00;77.10
42755;DHT22;28407;51.830;5.684;2023-02-08T04:42:13;1.00;77.10
42755;DHT22;28407;51.830;5.684;2023-02-08T04:44:13;0.90;77.10
42755;DHT22;28407;51.830;5.684;2023-02-08T04:46:15;0.90;77.00
42755;DHT22;28407;51.830;5.684;2023-02-08T04:48:15;0.90;77.10
42755;DHT22;28407;51.830;5.684;2023-02-08T04:50:16;0.90;77.10
42755;DHT22;28407;51.830;5.684;2023-02-08T04:52:17;0.90;77.10
42755;DHT22;28407;51.830;5.684;2023-02-08T04:54:17;0.90;77.20
42755;DHT22;28407;51.830;5.684;2023-02-08T04:56:18;0.90;77.20
42755;DHT22;28407;51.830;5.684;2023-02-08T04:58:19;0.90;77.20
42755;DHT22;28407;51.830;5.684;2023-02-08T05:00:19;0.80;77.10
42755;DHT22;28407;51.830;5.684;2023-02-08T05:02:20;0.90;77.20
42755;DHT22;28407;51.830;5.684;2023-02-08T05:04:20;0.90;77.20
42755;DHT22;28407;51.830;5.684;2023-02-08T05:06:21;0.90;77.30
42755;DHT22;28407;51.830;5.684;2023-02-08T05:08:22;0.90;77.30
42755;DHT22;28407;51.830;5.684;2023-02-08T05:10:22;0.90;77.30
42755;DHT22;28407;51.830;5.684;2023-02-08T05:12:23;0.90;77.30
42755;DHT22;28407;51.830;5.684;2023-02-08T05:14:24;0.90;77.30
42755;DHT22;28407;51.830;5.684;2023-02-08T05:16:25;0.90;77.30
42755;DHT22;28407;51.830;5.684;2023-02-08T05:18:25;0.90;77.30
42755;DHT22;28407;51.830;5.684;2023-02-08T05:20:26;0.90;77.40
42755;DHT22;28407;51.830;5.684;2023-02-08T05:22:26;0.90;77.40
42755;DHT22;28407;51.830;5.684;2023-02-08T05:24:27;1.00;77.40
42755;DHT22;28407;51.830;5.684;2023-02-08T05:26:28;1.00;77.40
42755;DHT22;28407;51.830;5.684;2023-02-08T05:28:28;0.90;77.30
42755;DHT22;28407;51.830;5.684;2023-02-08T05:30:29;0.90;77.40
42755;DHT22;28407;51.830;5.684;2023-02-08T05:32:30;0.90;77.40
42755;DHT22;28407;51.830;5.684;2023-02-08T05:34:31;0.90;77.40
42755;DHT22;28407;51.830;5.684;2023-02-08T05:36:32;0.80;77.40
42755;DHT22;28407;51.830;5.684;2023-02-08T05:38:32;0.80;77.40
42755;DHT22;28407;51.830;5.684;2023-02-08T05:40:33;0.80;77.40
42755;DHT22;28407;51.830;5.684;2023-02-08T05:42:34;0.80;77.40
42755;DHT22;28407;51.830;5.684;2023-02-08T05:44:34;0.80;77.40
42755;DHT22;28407;51.830;5.684;2023-02-08T05:46:35;0.70;77.40
42755;DHT22;28407;51.830;5.684;2023-02-08T05:48:36;0.70;77.40
42755;DHT22;28407;51.830;5.684;2023-02-08T05:50:36;0.80;77.40
42755;DHT22;28407;51.830;5.684;2023-02-08T05:52:37;0.80;77.40
42755;DHT22;28407;51.830;5.684;2023-02-08T05:54:37;0.80;77.40
42755;DHT22;28407;51.830;5.684;2023-02-08T05:56:38;0.80;77.30
42755;DHT22;28407;51.830;5.684;2023-02-08T05:58:38;0.80;77.30
42755;DHT22;28407;51.830;5.684;2023-02-08T06:00:39;0.80;77.30
42755;DHT22;28407;51.830;5.684;2023-02-08T06:02:40;0.80;77.20
42755;DHT22;28407;51.830;5.684;2023-02-08T06:04:40;0.80;77.10
42755;DHT22;28407;51.830;5.684;2023-02-08T06:06:41;0.80;77.00
42755;DHT22;28407;51.830;5.684;2023-02-08T06:08:42;0.90;77.00
42755;DHT22;28407;51.830;5.684;2023-02-08T06:10:42;0.90;76.90
42755;DHT22;28407;51.830;5.684;2023-02-08T06:12:45;0.90;76.80
42755;DHT22;28407;51.830;5.684;2023-02-08T06:14:45;0.80;76.70
42755;DHT22;28407;51.830;5.684;2023-02-08T06:16:46;0.90;76.80
42755;DHT22;28407;51.830;5.684;2023-02-08T06:18:47;0.90;76.70
42755;DHT22;28407;51.830;5.684;2023-02-08T06:20:48;0.90;76.80
42755;DHT22;28407;51.830;5.684;2023-02-08T06:22:51;0.90;76.80
42755;DHT22;28407;51.830;5.684;2023-02-08T06:24:52;0.90;76.60
42755;DHT22;28407;51.830;5.684;2023-02-08T06:26:52;0.90;76.50
42755;DHT22;28407;51.830;5.684;2023-02-08T06:28:53;0.90;76.40
42755;DHT22;28407;51.830;5.684;2023-02-08T06:30:53;0.90;76.40
42755;DHT22;28407;51.830;5.684;2023-02-08T06:32:54;0.90;76.50
42755;DHT22;28407;51.830;5.684;2023-02-08T06:34:54;0.90;76.40
42755;DHT22;28407;51.830;5.684;2023-02-08T06:36:55;1.00;76.40
42755;DHT22;28407;51.830;5.684;2023-02-08T06:38:56;1.00;76.30
42755;DHT22;28407;51.830;5.684;2023-02-08T06:40:57;1.00;76.30
42755;DHT22;28407;51.830;5.684;2023-02-08T06:42:58;1.00;76.20
42755;DHT22;28407;51.830;5.684;2023-02-08T06:44:58;1.00;76.10
42755;DHT22;28407;51.830;5.684;2023-02-08T06:46:59;1.00;76.10
42755;DHT22;28407;51.830;5.684;2023-02-08T06:49:00;1.10;76.20
42755;DHT22;28407;51.830;5.684;2023-02-08T06:51:00;1.10;76.00
42755;DHT22;28407;51.830;5.684;2023-02-08T06:53:01;1.10;76.00
42755;DHT22;28407;51.830;5.684;2023-02-08T06:55:02;1.10;76.00
42755;DHT22;28407;51.830;5.684;2023-02-08T06:57:03;1.10;76.00
42755;DHT22;28407;51.830;5.684;2023-02-08T06:59:04;1.20;76.00
42755;DHT22;28407;51.830;5.684;2023-02-08T07:01:04;1.20;75.90
42755;DHT22;28407;51.830;5.684;2023-02-08T07:03:05;1.30;75.90
42755;DHT22;28407;51.830;5.684;2023-02-08T07:05:06;1.40;75.90
42755;DHT22;28407;51.830;5.684;2023-02-08T07:07:07;1.40;75.80
42755;DHT22;28407;51.830;5.684;2023-02-08T07:09:07;1.50;75.80
42755;DHT22;28407;51.830;5.684;2023-02-08T07:11:10;1.50;75.80
42755;DHT22;28407;51.830;5.684;2023-02-08T07:13:11;1.60;75.80
42755;DHT22;28407;51.830;5.684;2023-02-08T07:15:11;1.60;75.70
42755;DHT22;28407;51.830;5.684;2023-02-08T07:17:13;1.60;75.60
42755;DHT22;28407;51.830;5.684;2023-02-08T07:19:13;1.70;75.60
42755;DHT22;28407;51.830;5.684;2023-02-08T07:21:14;1.60;75.60
42755;DHT22;28407;51.830;5.684;2023-02-08T07:23:15;1.70;75.60
42755;DHT22;28407;51.830;5.684;2023-02-08T07:25:15;1.70;75.60
42755;DHT22;28407;51.830;5.684;2023-02-08T07:27:16;1.70;75.60
42755;DHT22;28407;51.830;5.684;2023-02-08T07:29:16;1.80;75.60
42755;DHT22;28407;51.830;5.684;2023-02-08T07:31:17;1.80;75.50
42755;DHT22;28407;51.830;5.684;2023-02-08T07:33:18;1.70;75.50
42755;DHT22;28407;51.830;5.684;2023-02-08T07:35:19;1.80;75.50
42755;DHT22;28407;51.830;5.684;2023-02-08T07:37:19;1.80;75.40
42755;DHT22;28407;51.830;5.684;2023-02-08T07:39:20;1.80;75.40
42755;DHT22;28407;51.830;5.684;2023-02-08T07:41:20;1.80;75.30
42755;DHT22;28407;51.830;5.684;2023-02-08T07:43:21;1.80;75.40
42755;DHT22;28407;51.830;5.684;2023-02-08T07:45:30;1.90;75.50
42755;DHT22;28407;51.830;5.684;2023-02-08T07:47:30;1.90;75.30
42755;DHT22;28407;51.830;5.684;2023-02-08T07:49:31;1.90;75.20
42755;DHT22;28407;51.830;5.684;2023-02-08T07:51:32;1.90;75.10
42755;DHT22;28407;51.830;5.684;2023-02-08T07:53:33;1.90;75.10
42755;DHT22;28407;51.830;5.684;2023-02-08T07:55:33;1.90;75.10
42755;DHT22;28407;51.830;5.684;2023-02-08T07:57:34;1.90;75.10
42755;DHT22;28407;51.830;5.684;2023-02-08T07:59:35;1.90;75.10
42755;DHT22;28407;51.830;5.684;2023-02-08T08:01:35;1.90;75.10
42755;DHT22;28407;51.830;5.684;2023-02-08T08:03:36;1.90;75.10
42755;DHT22;28407;51.830;5.684;2023-02-08T08:05:39;1.90;75.10
42755;DHT22;28407;51.830;5.684;2023-02-08T08:07:40;1.90;75.00
42755;DHT22;28407;51.830;5.684;2023-02-08T08:09:41;2.00;75.10
42755;DHT22;28407;51.830;5.684;2023-02-08T08:11:41;2.00;75.10
42755;DHT22;28407;51.830;5.684;2023-02-08T08:13:42;2.00;75.10
42755;DHT22;28407;51.830;5.684;2023-02-08T08:15:43;2.00;75.60
42755;DHT22;28407;51.830;5.684;2023-02-08T08:17:43;2.00;74.90
42755;DHT22;28407;51.830;5.684;2023-02-08T08:19:44;2.00;74.90
42755;DHT22;28407;51.830;5.684;2023-02-08T08:21:45;2.10;74.90
42755;DHT22;28407;51.830;5.684;2023-02-08T08:23:45;2.10;74.80
42755;DHT22;28407;51.830;5.684;2023-02-08T08:25:46;2.10;74.70
42755;DHT22;28407;51.830;5.684;2023-02-08T08:27:46;2.10;74.70
42755;DHT22;28407;51.830;5.684;2023-02-08T08:29:47;2.20;74.70
42755;DHT22;28407;51.830;5.684;2023-02-08T08:31:48;2.20;74.70
42755;DHT22;28407;51.830;5.684;2023-02-08T08:33:48;2.20;74.70
42755;DHT22;28407;51.830;5.684;2023-02-08T08:35:49;2.20;74.70
42755;DHT22;28407;51.830;5.684;2023-02-08T08:37:50;2.20;74.60
42755;DHT22;28407;51.830;5.684;2023-02-08T08:39:50;2.20;74.40
42755;DHT22;28407;51.830;5.684;2023-02-08T08:41:51;2.30;74.60
42755;DHT22;28407;51.830;5.684;2023-02-08T08:43:52;2.40;74.40
42755;DHT22;28407;51.830;5.684;2023-02-08T08:45:53;2.40;74.20
42755;DHT22;28407;51.830;5.684;2023-02-08T08:47:53;2.40;74.20
42755;DHT22;28407;51.830;5.684;2023-02-08T08:49:54;2.40;74.10
42755;DHT22;28407;51.830;5.684;2023-02-08T08:51:55;2.40;74.10
42755;DHT22;28407;51.830;5.684;2023-02-08T08:53:56;2.40;74.20
42755;DHT22;28407;51.830;5.684;2023-02-08T08:55:56;2.50;74.20
42755;DHT22;28407;51.830;5.684;2023-02-08T08:57:57;2.50;74.10
42755;DHT22;28407;51.830;5.684;2023-02-08T08:59:57;2.50;74.10
42755;DHT22;28407;51.830;5.684;2023-02-08T09:01:58;2.50;74.10
42755;DHT22;28407;51.830;5.684;2023-02-08T09:03:59;2.50;74.00
42755;DHT22;28407;51.830;5.684;2023-02-08T09:06:00;2.50;74.00
42755;DHT22;28407;51.830;5.684;2023-02-08T09:08:00;2.60;74.00
42755;DHT22;28407;51.830;5.684;2023-02-08T09:10:03;2.60;73.90
42755;DHT22;28407;51.830;5.684;2023-02-08T09:12:03;2.60;73.80
42755;DHT22;28407;51.830;5.684;2023-02-08T09:14:04;2.60;73.80
42755;DHT22;28407;51.830;5.684;2023-02-08T09:16:11;2.60;73.70
42755;DHT22;28407;51.830;5.684;2023-02-08T09:18:12;2.60;73.60
42755;DHT22;28407;51.830;5.684;2023-02-08T09:20:12;2.60;73.70
42755;DHT22;28407;51.830;5.684;2023-02-08T09:22:14;2.60;73.70
42755;DHT22;28407;51.830;5.684;2023-02-08T09:24:15;2.60;73.70
42755;DHT22;28407;51.830;5.684;2023-02-08T09:26:17;2.60;73.60
42755;DHT22;28407;51.830;5.684;2023-02-08T09:28:18;2.70;73.70
42755;DHT22;28407;51.830;5.684;2023-02-08T09:30:19;2.70;73.60
42755;DHT22;28407;51.830;5.684;2023-02-08T09:32:19;2.70;73.50
42755;DHT22;28407;51.830;5.684;2023-02-08T09:34:21;2.70;73.50
42755;DHT22;28407;51.830;5.684;2023-02-08T09:36:23;2.80;73.50
42755;DHT22;28407;51.830;5.684;2023-02-08T09:38:25;2.80;73.40
42755;DHT22;28407;51.830;5.684;2023-02-08T09:40:37;2.80;73.30
42755;DHT22;28407;51.830;5.684;2023-02-08T09:42:40;2.80;73.20
42755;DHT22;28407;51.830;5.684;2023-02-08T09:47:05;2.80;73.20
42755;DHT22;28407;51.830;5.684;2023-02-08T09:49:15;2.80;73.10
42755;DHT22;28407;51.830;5.684;2023-02-08T09:51:27;2.80;73.10
42755;DHT22;28407;51.830;5.684;2023-02-08T09:53:38;2.80;73.00
42755;DHT22;28407;51.830;5.684;2023-02-08T09:55:47;2.80;73.00
42755;DHT22;28407;51.830;5.684;2023-02-08T09:57:50;2.80;73.00
42755;DHT22;28407;51.830;5.684;2023-02-08T09:59:58;2.90;73.10
42755;DHT22;28407;51.830;5.684;2023-02-08T10:02:33;2.90;73.10
42755;DHT22;28407;51.830;5.684;2023-02-08T10:04:44;2.90;73.00
42755;DHT22;28407;51.830;5.684;2023-02-08T10:06:47;3.00;73.00
42755;DHT22;28407;51.830;5.684;2023-02-08T10:08:50;3.00;72.90
42755;DHT22;28407;51.830;5.684;2023-02-08T10:10:55;3.00;72.80
42755;DHT22;28407;51.830;5.684;2023-02-08T10:13:26;3.10;72.80
42755;DHT22;28407;51.830;5.684;2023-02-08T10:15:46;3.10;72.80
42755;DHT22;28407;51.830;5.684;2023-02-08T10:18:08;3.10;72.80
42755;DHT22;28407;51.830;5.684;2023-02-08T10:27:16;3.20;72.50
42755;DHT22;28407;51.830;5.684;2023-02-08T10:36:16;3.20;72.40
42755;DHT22;28407;51.830;5.684;2023-02-08T10:38:31;3.30;72.30
42755;DHT22;28407;51.830;5.684;2023-02-08T10:40:37;3.30;72.10
42755;DHT22;28407;51.830;5.684;2023-02-08T10:42:38;3.30;72.00
42755;DHT22;28407;51.830;5.684;2023-02-08T10:44:50;3.30;72.00
42755;DHT22;28407;51.830;5.684;2023-02-08T10:47:19;3.30;72.00
42755;DHT22;28407;51.830;5.684;2023-02-08T10:49:32;3.40;72.00
42755;DHT22;28407;51.830;5.684;2023-02-08T10:51:35;3.40;71.90
42755;DHT22;28407;51.830;5.684;2023-02-08T10:53:36;3.40;71.90
42755;DHT22;28407;51.830;5.684;2023-02-08T10:55:40;3.40;71.90
42755;DHT22;28407;51.830;5.684;2023-02-08T10:57:42;3.50;71.80
42755;DHT22;28407;51.830;5.684;2023-02-08T10:59:52;3.50;71.70
42755;DHT22;28407;51.830;5.684;2023-02-08T11:01:55;3.50;71.60
42755;DHT22;28407;51.830;5.684;2023-02-08T11:03:59;3.50;71.50
42755;DHT22;28407;51.830;5.684;2023-02-08T11:05:59;3.60;71.50
42755;DHT22;28407;51.830;5.684;2023-02-08T11:08:08;3.60;71.50
42755;DHT22;28407;51.830;5.684;2023-02-08T11:12:21;3.70;71.30
42755;DHT22;28407;51.830;5.684;2023-02-08T11:14:28;3.70;71.20
42755;DHT22;28407;51.830;5.684;2023-02-08T11:16:31;3.80;71.10
42755;DHT22;28407;51.830;5.684;2023-02-08T11:18:36;3.90;71.10
42755;DHT22;28407;51.830;5.684;2023-02-08T11:20:39;3.90;71.60
42755;DHT22;28407;51.830;5.684;2023-02-08T11:22:44;4.00;70.80
42755;DHT22;28407;51.830;5.684;2023-02-08T11:25:00;4.00;70.60
42755;DHT22;28407;51.830;5.684;2023-02-08T11:27:01;4.00;70.50
42755;DHT22;28407;51.830;5.684;2023-02-08T11:31:19;4.20;70.20
42755;DHT22;28407;51.830;5.684;2023-02-08T11:33:20;4.20;70.10
42755;DHT22;28407;51.830;5.684;2023-02-08T11:35:24;4.30;69.80
42755;DHT22;28407;51.830;5.684;2023-02-08T11:37:25;4.30;69.70
42755;DHT22;28407;51.830;5.684;2023-02-08T11:39:43;4.40;69.70
42755;DHT22;28407;51.830;5.684;2023-02-08T11:41:51;4.40;69.40
42755;DHT22;28407;51.830;5.684;2023-02-08T11:43:57;4.40;69.40
42755;DHT22;28407;51.830;5.684;2023-02-08T11:46:00;4.50;69.30
42755;DHT22;28407;51.830;5.684;2023-02-08T11:48:02;4.60;69.10
42755;DHT22;28407;51.830;5.684;2023-02-08T11:50:06;4.60;69.00
42755;DHT22;28407;51.830;5.684;2023-02-08T11:52:22;4.60;69.30
42755;DHT22;28407;51.830;5.684;2023-02-08T11:54:40;4.70;68.70
42755;DHT22;28407;51.830;5.684;2023-02-08T11:56:41;4.80;68.60
42755;DHT22;28407;51.830;5.684;2023-02-08T11:59:16;4.80;68.40
42755;DHT22;28407;51.830;5.684;2023-02-08T12:01:19;4.90;68.20
42755;DHT22;28407;51.830;5.684;2023-02-08T12:03:25;4.90;68.10
42755;DHT22;28407;51.830;5.684;2023-02-08T12:08:03;5.00;67.80
42755;DHT22;28407;51.830;5.684;2023-02-08T12:15:39;5.20;67.20
42755;DHT22;28407;51.830;5.684;2023-02-08T12:20:05;5.40;66.80
42755;DHT22;28407;51.830;5.684;2023-02-08T12:22:12;5.40;66.70
42755;DHT22;28407;51.830;5.684;2023-02-08T12:29:54;5.60;66.00
42755;DHT22;28407;51.830;5.684;2023-02-08T12:40:53;5.90;64.90
42755;DHT22;28407;51.830;5.684;2023-02-08T12:45:42;6.00;64.50
42755;DHT22;28407;51.830;5.684;2023-02-08T12:54:23;6.30;64.00
42755;DHT22;28407;51.830;5.684;2023-02-08T12:56:29;6.30;63.80
42755;DHT22;28407;51.830;5.684;2023-02-08T12:58:39;6.40;63.60
42755;DHT22;28407;51.830;5.684;2023-02-08T13:00:42;6.50;63.40
42755;DHT22;28407;51.830;5.684;2023-02-08T13:05:02;6.60;63.10
42755;DHT22;28407;51.830;5.684;2023-02-08T13:11:39;6.70;62.70
42755;DHT22;28407;51.830;5.684;2023-02-08T13:13:42;6.80;62.70
42755;DHT22;28407;51.830;5.684;2023-02-08T13:22:40;6.90;62.10
42755;DHT22;28407;51.830;5.684;2023-02-08T13:24:43;7.00;62.10
42755;DHT22;28407;51.830;5.684;2023-02-08T13:26:44;7.00;61.90
42755;DHT22;28407;51.830;5.684;2023-02-08T13:28:52;7.00;61.80
42755;DHT22;28407;51.830;5.684;2023-02-08T13:31:11;7.00;61.70
42755;DHT22;28407;51.830;5.684;2023-02-08T13:35:31;7.10;61.50
42755;DHT22;28407;51.830;5.684;2023-02-08T13:37:33;7.20;61.20
42755;DHT22;28407;51.830;5.684;2023-02-08T13:39:40;7.20;61.10
42755;DHT22;28407;51.830;5.684;2023-02-08T13:41:50;7.20;61.00
42755;DHT22;28407;51.830;5.684;2023-02-08T13:44:03;7.30;61.00
42755;DHT22;28407;51.830;5.684;2023-02-08T13:46:05;7.30;60.80
42755;DHT22;28407;51.830;5.684;2023-02-08T13:48:10;7.30;60.60
42755;DHT22;28407;51.830;5.684;2023-02-08T13:52:46;7.30;60.40
42755;DHT22;28407;51.830;5.684;2023-02-08T13:57:50;7.40;60.20
42755;DHT22;28407;51.830;5.684;2023-02-08T14:05:32;7.50;59.80
42755;DHT22;28407;51.830;5.684;2023-02-08T14:07:44;7.50;59.60
42755;DHT22;28407;51.830;5.684;2023-02-08T14:09:52;7.50;59.60
42755;DHT22;28407;51.830;5.684;2023-02-08T14:12:08;7.50;60.00
42755;DHT22;28407;51.830;5.684;2023-02-08T14:14:16;7.50;59.60
42755;DHT22;28407;51.830;5.684;2023-02-08T14:16:35;7.50;59.60
42755;DHT22;28407;51.830;5.684;2023-02-08T14:18:38;7.50;59.50
42755;DHT22;28407;51.830;5.684;2023-02-08T14:20:39;7.40;59.40
42755;DHT22;28407;51.830;5.684;2023-02-08T14:22:49;7.40;59.20
42755;DHT22;28407;51.830;5.684;2023-02-08T14:25:04;7.40;59.20
42755;DHT22;28407;51.830;5.684;2023-02-08T14:29:37;7.40;59.20
42755;DHT22;28407;51.830;5.684;2023-02-08T14:31:41;7.30;59.30
42755;DHT22;28407;51.830;5.684;2023-02-08T14:33:51;7.40;59.20
42755;DHT22;28407;51.830;5.684;2023-02-08T14:35:56;7.40;59.10
42755;DHT22;28407;51.830;5.684;2023-02-08T14:44:57;7.40;58.50
42755;DHT22;28407;51.830;5.684;2023-02-08T14:46:57;7.40;58.60
42755;DHT22;28407;51.830;5.684;2023-02-08T14:48:59;7.40;58.50
42755;DHT22;28407;51.830;5.684;2023-02-08T14:55:18;7.40;58.20
42755;DHT22;28407;51.830;5.684;2023-02-08T14:57:25;7.40;58.10
42755;DHT22;28407;51.830;5.684;2023-02-08T14:59:30;7.30;58.00
42755;DHT22;28407;51.830;5.684;2023-02-08T15:01:44;7.40;58.00
42755;DHT22;28407;51.830;5.684;2023-02-08T15:03:48;7.30;57.80
42755;DHT22;28407;51.830;5.684;2023-02-08T15:08:21;7.30;57.60
42755;DHT22;28407;51.830;5.684;2023-02-08T15:10:23;7.30;57.80
42755;DHT22;28407;51.830;5.684;2023-02-08T15:12:28;7.30;57.70
42755;DHT22;28407;51.830;5.684;2023-02-08T15:14:32;7.30;57.70
42755;DHT22;28407;51.830;5.684;2023-02-08T15:16:41;7.30;57.80